Williamsburg, IA (52361)

12:05 PM CDT on July 29, 2015 (GMT -0500)
KIAWILLI3 | | Change Station
CLOSE
Current Station
Personal Weather Station
Location: Williamsburg, IA
Elevation: 820 ft
Nearby Weather Stations
Active Advisory: Flood Warning Active Notice: Local Storm Report

Elev 820 ft 41.66 °N, 92.02 °W | Updated 4 seconds ago

Clear
Clear
81.5 °F
Feels Like 81 °F
N
4.0
Wind Variable Wind from NE
Gusts 5.0 mph

Today
High -- | Low -- °F
--% Chance of Precip.
Yesterday
High -- | Low -- °F
Precip. -- in
5:59 AM 8:29 PM
Waxing Gibbous, 96% visible
Pressure 30.06 in
Visibility 10.0 miles
Clouds Clear
Heat Index 81 °F
Dew Point 52 °F
Humidity 36%
Rainfall 0.25 in
Snow Depth Not available.
UV 10 out of 12
Pollen .40 out of 12
Air Quality Not available.
Flu Activity Not available.
METAR KCID 291652Z 32013G21KT 10SM CLR 26/14 A3008 RMK AO2 SLP180 T02610139

More Conditions Fewer Conditions

Pressure 30.06 in
Visibility 10.0 miles
Clouds Clear
Heat Index 81 °F
Dew Point 52 °F
Humidity 36%
Rainfall 0.25 in
Snow Depth Not available.
UV 10 out of 12
Pollen .40 out of 12
Air Quality Not available.
Flu Activity Not available.
METAR KCID 291652Z 32013G21KT 10SM CLR 26/14 A3008 RMK AO2 SLP180 T02610139

More Conditions Fewer Conditions

10-Day Weather Forecast

×

Almanac

Astronomy

Jul. 29, 2015 Rise Set
Actual Time
Civil Twilight
Nautical Twilight
Astronomical Twilight
Moon
Length of Visible Light
Length of Day
Tomorrow will be .
, % of the Moon is Illuminated

Today's Extremes

State Highs State Lows

Community

WunderPhotos

Upload Photos

1,842,130 photos uploaded!

WunderBlogs® & News

Nearby

Air Quality

  Air Quality AQ Index Pollutant
Not available.

Snow Depth

Station Depth Elevation

Earthquake Activity

City Distance Mag. Time & Date
Minimum magnitude displayed is 2.5.

Coastal Water Temperatures

Place Temperature

Stations

Nearby Weather Stations

Station Location Temp. Windchill Dew Point Humidity Wind Precip. Elev Updated Type
                   
Flood Warning
Statement as of 8:55 AM CDT on July 29, 2015

... Flood Warning now in effect until Saturday morning...

The Flood Warning continues for
the Iowa river at Marengo.
* Until Saturday morning.
* At 8:00 am Wednesday the stage was 13.9 feet... and rising.
* Flood stage is 14 feet.
* Moderate flooding is forecast.
* Forecast... rise above flood stage this morning... and continue
rising to 15.5 feet Friday. Fall below flood stage Saturday
morning.
* Impact... at 14.0 feet... water affects low-lying agricultural land
along the river.


Lat... Lon 4182 9230 4176 9197 4175 9183 4182 9183
      4187 9230